Flight Track Log - Related Links

Times and Time Zones

All times are in EDT time to prevent confusion due to time zone crossing. See the UPS328 flight status page for this flight to view local times or setup timezone preferences in your user account.

Time Position Orientation Groundspeed Altitude Reporting Facility
EDT Latitude Longitude Course Direction KTS MPH feet Rate Location/Type
Tue 03:30:50 PM 38.1870 -85.7490 344° North 172 198 1,200  Level FlightAware ADS-B
Tue 03:31:02 PM 38.1970 -85.7520 347° North 175 201 1,800 2,444 Climbing FlightAware ADS-B
Tue 03:31:17 PM 38.2080 -85.7570 340° North 184 212 2,300 1,688 Climbing FlightAware ADS-B
Tue 03:31:34 PM 38.2220 -85.7670 331° Northwest 208 239 2,700 1,455 Climbing FlightAware ADS-B
Tue 03:31:50 PM 38.2370 -85.7780 330° Northwest 234 269 3,100 1,371 Climbing FlightAware ADS-B
Tue 03:32:09 PM 38.2560 -85.7890 336° Northwest 265 305 3,500 1,680 Climbing FlightAware ADS-B
Tue 03:32:15 PM 38.2630 -85.7900 354° North 268 308 3,800 3,273 Climbing FlightAware ADS-B
Tue 03:32:42 PM 38.2940 -85.7730 23° Northeast 277 319 5,300 3,257 Climbing FlightAware ADS-B
Tue 03:32:50 PM 38.3010 -85.7630 48° Northeast 279 321 5,700 3,214 Climbing FlightAware ADS-B
Tue 03:33:10 PM 38.3140 -85.7360 58° Northeast 283 326 6,800 3,188 Climbing FlightAware ADS-B
Tue 03:33:22 PM 38.3200 -85.7170 68° East 292 336 7,400 2,700 Climbing FlightAware ADS-B
Tue 03:33:30 PM 38.3210 -85.7030 85° East 297 342 7,700 2,625 Climbing FlightAware ADS-B
Tue 03:33:38 PM 38.3190 -85.6890 100° East 299 344 8,100 3,000 Climbing FlightAware ADS-B
Tue 03:33:50 PM 38.3120 -85.6700 115° Southeast 300 345 8,700 3,000 Climbing FlightAware ADS-B
Tue 03:33:58 PM 38.3050 -85.6600 132° Southeast 300 345 9,100 2,348 Climbing FlightAware ADS-B
Tue 03:34:36 PM 38.2630 -85.6160 141° Southeast 326 375 10,500 1,800 Climbing FlightAware ADS-B
Tue 03:35:08 PM 38.2220 -85.5740 141° Southeast 363 418 11,200 1,313 Climbing FlightAware ADS-B
Tue 03:35:40 PM 38.1790 -85.5270 139° Southeast 397 457 11,900 2,027 Climbing FlightAware ADS-B
Tue 03:36:22 PM 38.1210 -85.4580 137° Southeast 408 470 13,700 2,462 Climbing FlightAware ADS-B
Tue 03:36:58 PM 38.0720 -85.3980 136° Southeast 420 483 15,100 2,113 Climbing FlightAware ADS-B
Tue 03:37:33 PM 38.0230 -85.3390 137° Southeast 432 497 16,200 1,975 Climbing FlightAware ADS-B
Tue 03:38:17 PM 37.9590 -85.2630 137° Southeast 445 512 17,700 1,899 Climbing FlightAware ADS-B
Tue 03:38:52 PM 37.9070 -85.2000 136° Southeast 457 526 18,700 1,800 Climbing FlightAware ADS-B
Tue 03:39:27 PM 37.8550 -85.1360 136° Southeast 465 535 19,800 1,775 Climbing FlightAware ADS-B
Tue 03:40:03 PM 37.7950 -85.0660 137° Southeast 473 544 20,800 1,714 Climbing FlightAware ADS-B
Tue 03:40:37 PM 37.7380 -84.9970 136° Southeast 483 556 21,800 1,676 Climbing FlightAware ADS-B
Tue 03:41:11 PM 37.6850 -84.9340 137° Southeast 489 563 22,700 1,674 Climbing FlightAware ADS-B
Tue 03:41:42 PM 37.6304 -84.8687 137° Southeast 23,700 1,731 Climbing FlightAware ADS-B
Tue 03:42:03 PM 37.5956 -84.8273 137° Southeast 493 567 24,200 1,500 Climbing FlightAware ADS-B
Tue 03:42:34 PM 37.5450 -84.7671 137° Southeast 500 575 25,000 1,475 Climbing FlightAware ADS-B
Tue 03:43:04 PM 37.4940 -84.7068 137° Southeast 502 578 25,700 1,300 Climbing FlightAware ADS-B
Tue 03:43:34 PM 37.4470 -84.6510 137° Southeast 505 581 26,300 806 Climbing FlightAware ADS-B
Tue 03:44:11 PM 37.3890 -84.5810 136° Southeast 505 581 26,600 1,765 Climbing FlightAware ADS-B
Tue 03:44:25 PM 37.3555 -84.5431 138° Southeast 506 582 27,800 2,727 Climbing FlightAware ADS-B
Tue 03:44:55 PM 37.3045 -84.4831 137° Southeast 503 579 28,600 1,558 Climbing FlightAware ADS-B
Tue 03:45:42 PM 37.2258 -84.3905 137° Southeast 500 575 29,800 1,394 Climbing FlightAware ADS-B
Tue 03:46:34 PM 37.1385 -84.2886 137° Southeast 498 573 30,900 1,317 Climbing FlightAware ADS-B
Tue 03:47:04 PM 37.0871 -84.2286 137° Southeast 497 572 31,600 1,377 Climbing FlightAware ADS-B
Tue 03:47:35 PM 37.0362 -84.1694 137° Southeast 494 568 32,300 1,037 Climbing FlightAware ADS-B
Tue 03:48:25 PM 36.9522 -84.0720 137° Southeast 495 570 33,000 519 Climbing FlightAware ADS-B
Tue 03:48:56 PM 36.9002 -84.0119 137° Southeast 495 570 33,000  Level FlightAware ADS-B
Tue 03:49:26 PM 36.8498 -83.9537 137° Southeast 493 567 33,000  Level FlightAware ADS-B
Tue 03:49:56 PM 36.7995 -83.8957 137° Southeast 491 565 33,000  Level FlightAware ADS-B
Tue 03:50:27 PM 36.7481 -83.8368 137° Southeast 488 562 33,000  Level FlightAware ADS-B
Tue 03:50:59 PM 36.6955 -83.7765 137° Southeast 490 564 33,000  Level FlightAware ADS-B
Tue 03:51:29 PM 36.6443 -83.7177 137° Southeast 492 566 33,000  Level FlightAware ADS-B
Tue 03:52:00 PM 36.5941 -83.6601 137° Southeast 486 559 33,000  Level FlightAware ADS-B
Tue 03:52:30 PM 36.5448 -83.6037 137° Southeast 482 555 33,000  Level FlightAware ADS-B
Tue 03:53:00 PM 36.4947 -83.5467 138° Southeast 483 556 33,000  Level FlightAware ADS-B
Tue 03:53:30 PM 36.4450 -83.4901 137° Southeast 487 560 33,000  Level FlightAware ADS-B
Tue 03:54:01 PM 36.3938 -83.4321 138° Southeast 490 564 33,000  Level FlightAware ADS-B
Tue 03:54:44 PM 36.3209 -83.3495 138° Southeast 491 565 33,000  Level FlightAware ADS-B
Tue 03:55:18 PM 36.2656 -83.2870 138° Southeast 486 559 33,000  Level FlightAware ADS-B
Tue 03:55:52 PM 36.2077 -83.2222 138° Southeast 486 559 33,000  Level FlightAware ADS-B
Tue 03:56:07 PM 36.1819 -83.1955 140° Southeast 486 559 33,000  Level FlightAware ADS-B
Tue 03:56:38 PM 36.1286 -83.1420 141° Southeast 482 555 33,000  Level FlightAware ADS-B
Tue 03:57:08 PM 36.0770 -83.0902 141° Southeast 476 548 33,000  Level FlightAware ADS-B
Tue 03:57:39 PM 36.0244 -83.0371 141° Southeast 478 550 33,000  Level FlightAware ADS-B
Tue 03:58:09 PM 35.9728 -82.9851 141° Southeast 481 554 33,000  Level FlightAware ADS-B
Tue 03:58:40 PM 35.9195 -82.9311 141° Southeast 476 548 33,000  Level FlightAware ADS-B
Tue 03:59:15 PM 35.8602 -82.8713 141° Southeast 470 541 33,000  Level FlightAware ADS-B
Tue 03:59:49 PM 35.8042 -82.8149 141° Southeast 467 537 33,000  Level FlightAware ADS-B
Tue 04:00:22 PM 35.7495 -82.7599 141° Southeast 471 542 33,000  Level FlightAware ADS-B
Tue 04:00:53 PM 35.6966 -82.7069 141° Southeast 475 547 33,000  Level FlightAware ADS-B
Tue 04:01:23 PM 35.6443 -82.6546 141° Southeast 476 548 33,000  Level FlightAware ADS-B
Tue 04:01:54 PM 35.5917 -82.6021 141° Southeast 474 545 33,000  Level FlightAware ADS-B
Tue 04:02:26 PM 35.5370 -82.5475 141° Southeast 472 543 33,000  Level FlightAware ADS-B
Tue 04:02:57 PM 35.4844 -82.4952 141° Southeast 470 541 33,000  Level FlightAware ADS-B
Tue 04:03:27 PM 35.4339 -82.4450 141° Southeast 470 541 33,000  Level FlightAware ADS-B
Tue 04:03:58 PM 35.3818 -82.3935 141° Southeast 474 545 33,000  Level FlightAware ADS-B
Tue 04:04:28 PM 35.3302 -82.3426 141° Southeast 473 544 33,000  Level FlightAware ADS-B
Tue 04:04:58 PM 35.2790 -82.2918 141° Southeast 472 543 33,000  Level FlightAware ADS-B
Tue 04:05:30 PM 35.2263 -82.2397 141° Southeast 469 540 33,000  Level FlightAware ADS-B
Tue 04:06:02 PM 35.1716 -82.1857 141° Southeast 467 537 33,000  Level FlightAware ADS-B
Tue 04:06:32 PM 35.1209 -82.1358 141° Southeast 469 540 33,000  Level FlightAware ADS-B
Tue 04:07:05 PM 35.0658 -82.0819 141° Southeast 469 540 33,000  Level FlightAware ADS-B
Tue 04:07:36 PM 35.0134 -82.0304 141° Southeast 469 540 33,000  Level FlightAware ADS-B
Tue 04:08:13 PM 34.9505 -81.9689 141° Southeast 469 540 33,000  Level FlightAware ADS-B
Tue 04:08:44 PM 34.8981 -81.9177 141° Southeast 464 534 33,000  Level FlightAware ADS-B
Tue 04:09:21 PM 34.8376 -81.8588 141° Southeast 458 527 33,000  Level FlightAware ADS-B
Tue 04:09:57 PM 34.7780 -81.8010 141° Southeast 462 532 33,000  Level FlightAware ADS-B
Tue 04:10:24 PM 34.7324 -81.7564 141° Southeast 462 532 33,000  Level FlightAware ADS-B
Tue 04:11:08 PM 34.6580 -81.6850 142° Southeast 464 534 33,000  Level FlightAware ADS-B
Tue 04:11:32 PM 34.6180 -81.6460 141° Southeast 464 534 33,000  Level FlightAware ADS-B
Tue 04:12:27 PM 34.5260 -81.5570 141° Southeast 466 536 33,000  Level FlightAware ADS-B
Tue 04:12:58 PM 34.4730 -81.5060 142° Southeast 466 536 33,000  Level FlightAware ADS-B
Tue 04:13:38 PM 34.4060 -81.4410 141° Southeast 469 540 33,000  Level FlightAware ADS-B
Tue 04:14:10 PM 34.3510 -81.3880 141° Southeast 470 541 33,000  Level FlightAware ADS-B
Tue 04:14:47 PM 34.3020 -81.3130 128° Southeast 462 532 33,000  Level FlightAware ADS-B
Tue 04:15:22 PM 34.2630 -81.2430 124° Southeast 459 528 33,000  Level FlightAware ADS-B
Tue 04:15:57 PM 34.2200 -81.1670 124° Southeast 459 528 33,000  Level FlightAware ADS-B
Tue 04:16:29 PM 34.1810 -81.0970 124° Southeast 459 528 33,000  Level FlightAware ADS-B
Tue 04:17:05 PM 34.1410 -81.0270 125° Southeast 462 532 33,000  Level FlightAware ADS-B
Tue 04:17:45 PM 34.0900 -80.9380 125° Southeast 461 531 33,000  Level FlightAware ADS-B
Tue 04:18:20 PM 34.0470 -80.8620 124° Southeast 460 529 33,000  Level FlightAware ADS-B
Tue 04:18:58 PM 34.0010 -80.7810 124° Southeast 456 525 33,000  Level FlightAware ADS-B
Tue 04:19:34 PM 33.9590 -80.7080 125° Southeast 456 525 33,000  Level FlightAware ADS-B
Tue 04:20:17 PM 33.9110 -80.6230 124° Southeast 461 531 33,000  Level FlightAware ADS-B
Tue 04:21:12 PM 33.8400 -80.5000 125° Southeast 467 537 33,000  Level FlightAware ADS-B
Tue 04:21:42 PM 33.8080 -80.4450 125° Southeast 466 536 33,000  Level FlightAware ADS-B
Tue 04:22:17 PM 33.7650 -80.3690 124° Southeast 464 534 33,000  Level FlightAware ADS-B
Tue 04:22:57 PM 33.7150 -80.2830 125° Southeast 463 533 33,000  Level FlightAware ADS-B
Tue 04:23:27 PM 33.6750 -80.2140 125° Southeast 462 532 33,000  Level FlightAware ADS-B
Tue 04:24:07 PM 33.6280 -80.1330 125° Southeast 464 534 33,000  Level FlightAware ADS-B
Tue 04:24:37 PM 33.5920 -80.0700 124° Southeast 466 536 33,000  Level FlightAware ADS-B
Tue 04:25:22 PM 33.5350 -79.9740 125° Southeast 470 541 33,000  Level FlightAware ADS-B
Tue 04:26:07 PM 33.4800 -79.8780 124° Southeast 473 544 33,000  Level FlightAware ADS-B
Tue 04:26:37 PM 33.4430 -79.8160 126° Southeast 476 548 33,000  Level FlightAware ADS-B
Tue 04:27:17 PM 33.3890 -79.7240 125° Southeast 479 551 33,000  Level FlightAware ADS-B
Tue 04:27:47 PM 33.3510 -79.6590 125° Southeast 483 556 33,000  Level FlightAware ADS-B
Tue 04:28:22 PM 33.3050 -79.5810 125° Southeast 485 558 33,000  Level FlightAware ADS-B
Tue 04:29:02 PM 33.2540 -79.4950 125° Southeast 483 556 33,000  Level FlightAware ADS-B
Tue 04:29:37 PM 33.2090 -79.4200 126° Southeast 478 550 33,000  Level FlightAware ADS-B
Tue 04:30:07 PM 33.1710 -79.3550 125° Southeast 475 547 33,000  Level FlightAware ADS-B
Tue 04:30:42 PM 33.1270 -79.2800 125° Southeast 474 545 33,000  Level FlightAware ADS-B
Tue 04:31:22 PM 33.0770 -79.1970 126° Southeast 477 549 33,000  Level FlightAware ADS-B
Tue 04:31:52 PM 33.0370 -79.1300 125° Southeast 474 545 33,000  Level FlightAware ADS-B
Tue 04:32:33 PM 32.9880 -79.0480 125° Southeast 474 545 33,000  Level FlightAware ADS-B
Tue 04:33:02 PM 32.9510 -78.9860 125° Southeast 477 549 33,000  Level FlightAware ADS-B
Tue 04:33:37 PM 32.9030 -78.9060 126° Southeast 480 552 33,000  Level FlightAware ADS-B
Tue 04:34:17 PM 32.8520 -78.8210 126° Southeast 481 554 33,000  Level FlightAware ADS-B
Tue 04:34:47 PM 32.8120 -78.7560 126° Southeast 482 555 33,000 185 Level FlightAware ADS-B
Tue 04:35:22 PM 32.7730 -78.6910 125° Southeast 484 557 33,200 771 Climbing FlightAware ADS-B
Tue 04:35:57 PM 32.7220 -78.6060 125° Southeast 483 556 33,900 686 Climbing FlightAware ADS-B
Tue 04:36:32 PM 32.6760 -78.5290 125° Southeast 486 559 34,000 86 Climbing FlightAware ADS-B
Tue 04:37:07 PM 32.6300 -78.4540 126° Southeast 482 555 34,000  Level FlightAware ADS-B
Tue 04:37:47 PM 32.5810 -78.3730 126° Southeast 478 550 34,000  Level FlightAware ADS-B
Tue 04:38:18 PM 32.5430 -78.3110 126° Southeast 481 554 34,000  Level FlightAware ADS-B
Tue 04:38:57 PM 32.4970 -78.2350 126° Southeast 482 555 34,000  Level FlightAware ADS-B
Tue 04:39:32 PM 32.5250 -78.2810 306° West 487 560 34,000  Level FlightAware ADS-B
Tue 04:39:37 PM 32.4030 -78.1930 149° Southeast 490 564 34,000  Level FlightAware ADS-B
Tue 04:40:12 PM 32.3160 -78.1800 173° South 486 559 34,000  Level FlightAware ADS-B
Tue 04:41:00 PM 32.2260 -78.1670 173° South 485 558 34,000  Level FlightAware ADS-B
Tue 04:41:32 PM 32.1440 -78.1570 174° South 480 552 34,000  Level FlightAware ADS-B
Tue 04:42:29 PM 32.0930 -78.1490 172° South 482 555 34,000  Level FlightAware ADS-B
Tue 04:42:57 PM 32.0970 -78.1500 348° North 482 555 34,000  Level FlightAware ADS-B
Tue 04:43:33 PM 32.0290 -78.1400 173° South 482 555 34,000  Level FlightAware ADS-B
Tue 04:44:09 PM 31.9620 -78.1300 173° South 482 555 34,000  Level FlightAware ADS-B
Tue 04:44:46 PM 31.8920 -78.1200 173° South 482 555 34,000  Level FlightAware ADS-B
Tue 04:45:23 PM 31.8220 -78.1100 173° South 482 555 34,000  Level FlightAware ADS-B
Tue 04:45:58 PM 31.7560 -78.1010 173° South 482 555 34,000  Level FlightAware ADS-B
Tue 04:46:34 PM 31.6890 -78.0910 173° South 482 555 34,000  Level FlightAware ADS-B
Tue 04:47:11 PM 31.6190 -78.0810 173° South 482 555 34,000  Level FlightAware ADS-B
Tue 04:47:47 PM 31.5510 -78.0710 173° South 482 555 34,000  Level FlightAware ADS-B
Tue 04:48:23 PM 31.4840 -78.0610 173° South 482 555 34,000  Level FlightAware ADS-B
Tue 04:48:57 PM 31.4200 -78.0520 173° South 482 555 34,000  Level FlightAware ADS-B
Tue 04:49:33 PM 31.3520 -78.0420 173° South 482 555 34,000  Level FlightAware ADS-B
Tue 04:50:09 PM 31.2840 -78.0330 174° South 482 555 34,000  Level FlightAware ADS-B
Tue 04:50:46 PM 31.2150 -78.0230 173° South 482 555 34,000  Level FlightAware ADS-B
Tue 04:51:22 PM 31.1470 -78.0130 173° South 482 555 34,000  Level FlightAware ADS-B
Tue 04:52:10 PM 31.0570 -78.0000 173° South 482 555 34,000  Level FlightAware ADS-B
Tue 04:53:18 PM 30.6014 -77.9519 173° South 475 547 34,000  Level Miami Center
Tue 04:54:18 PM 30.4556 -77.9336 174° South 480 552 34,000  Level Miami Center
Tue 04:55:18 PM 30.3244 -77.9156 173° South 478 550 34,000  Level Miami Center
Tue 04:56:18 PM 30.2119 -77.9097 177° South 478 550 34,000  Level Miami Center
Tue 04:57:18 PM 30.0786 -77.8892 172° South 472 543 34,000  Level Miami Center
Tue 04:58:18 PM 29.9494 -77.8711 173° South 472 543 34,000  Level Miami Center
Tue 04:59:18 PM 29.8244 -77.8556 174° South 468 539 34,000  Level Miami Center
Tue 05:00:18 PM 29.6953 -77.8353 172° South 468 539 34,000  Level Miami Center
Tue 05:01:18 PM 29.5744 -77.8247 176° South 446 513 34,000  Level Miami Center
Tue 05:02:18 PM 29.4389 -77.8022 172° South 489 563 34,000  Level Miami Center
Tue 05:03:18 PM 29.3139 -77.7914 176° South 467 537 34,000  Level Miami Center
Tue 05:05:18 PM 29.0533 -77.7561 173° South 461 531 34,000 -33 Level Miami Center
Tue 05:06:18 PM 28.9094 -77.7383 174° South 461 531 33,900  Descending Miami Center
Tue 05:07:18 PM 28.7989 -77.7231 173° South 461 531 34,000  Climbing Miami Center
Tue 05:08:18 PM 28.6592 -77.7081 175° South 461 531 33,900 -50 Descending Miami Center
Tue 05:09:18 PM 28.5383 -77.6881 172° South 469 540 33,900 50 Level Miami Center
Tue 05:10:18 PM 28.4111 -77.6731 174° South 469 540 34,000 50 Climbing Miami Center
Tue 05:11:18 PM 28.2817 -77.6556 173° South 469 540 34,000  Level Miami Center
Tue 05:12:18 PM 28.1608 -77.6242 167° South 462 532 34,000  Level Miami Center
Tue 05:13:18 PM 28.0525 -77.5644 154° Southeast 449 517 34,000  Level Miami Center
Tue 05:14:18 PM 27.9422 -77.4744 144° Southeast 449 517 34,000  Level Miami Center
Tue 05:15:18 PM 27.8444 -77.3519 132° Southeast 454 522 34,000  Level Miami Center
Tue 05:16:18 PM 27.7614 -77.2458 131° Southeast 453 521 34,000  Level Miami Center
Tue 05:17:18 PM 27.6781 -77.1400 132° Southeast 453 521 34,000  Level Miami Center
Tue 05:18:18 PM 27.5906 -77.0250 131° Southeast 470 541 34,000  Level Miami Center
Tue 05:19:18 PM 27.5050 -76.9219 133° Southeast 455 524 34,000  Level Miami Center
Tue 05:20:18 PM 27.4214 -76.8211 133° Southeast 455 524 34,000  Level Miami Center
Tue 05:21:18 PM 27.3356 -76.7114 131° Southeast 456 525 34,000  Level Miami Center
Tue 05:22:18 PM 27.2478 -76.6017 132° Southeast 456 525 34,000  Level Miami Center
Tue 05:23:18 PM 27.1661 -76.5036 133° Southeast 454 522 34,000  Level Miami Center
Tue 05:24:19 PM 27.0781 -76.3919 132° Southeast 460 529 34,000  Level Miami Center
Tue 05:25:18 PM 26.9919 -76.2828 132° Southeast 460 529 34,000  Level Miami Center
Tue 05:26:18 PM 26.9058 -76.1806 133° Southeast 455 524 34,000 -250 Level Miami Center
Tue 05:27:18 PM 26.8197 -76.0764 133° Southeast 455 524 33,500 -500 Descending Miami Center
Tue 05:28:18 PM 26.7378 -75.9722 131° Southeast 448 516 33,000 -250 Descending Miami Center
Tue 05:29:18 PM 26.6514 -75.8683 133° Southeast 458 527 33,000  Level Miami Center
Tue 05:30:18 PM 26.5628 -75.7597 132° Southeast 453 521 33,000  Level Miami Center
Tue 05:31:18 PM 26.4764 -75.6561 133° Southeast 453 521 33,000  Level Miami Center
Tue 05:32:18 PM 26.3856 -75.5481 133° Southeast 461 531 33,000  Level Miami Center
Tue 05:33:18 PM 26.3053 -75.4469 132° Southeast 464 534 33,000  Level Miami Center
Tue 05:34:18 PM 26.2122 -75.3369 133° Southeast 464 534 33,000  Level Miami Center
Tue 05:35:18 PM 26.1275 -75.2317 132° Southeast 467 537 33,000  Level Miami Center
Tue 05:36:18 PM 26.0406 -75.1286 133° Southeast 462 532 33,000  Level Miami Center
Tue 05:37:18 PM 25.9728 -75.0442 132° Southeast 462 532 33,000  Level Miami Center
Tue 05:38:18 PM 25.8561 -74.9119 134° Southeast 474 545 33,000  Level Miami Center
Tue 05:39:18 PM 25.7753 -74.8094 131° Southeast 474 545 33,000  Level Miami Center
Tue 05:40:18 PM 25.6861 -74.7164 137° Southeast 468 539 33,000  Level Miami Center
Tue 05:41:18 PM 25.5989 -74.6097 132° Southeast 468 539 33,000  Level Miami Center
Tue 05:42:18 PM 25.5094 -74.5056 134° Southeast 475 547 33,000  Level Miami Center
Tue 05:43:18 PM 25.4242 -74.4058 133° Southeast 460 529 33,000  Level Miami Center
Tue 05:44:18 PM 25.3283 -74.2883 132° Southeast 474 545 33,000  Level Miami Center
Tue 05:46:18 PM 25.1383 -74.0675 134° Southeast 474 545 33,000  Level Miami Center
Tue 05:47:18 PM 25.0506 -73.9639 133° Southeast 474 545 33,000  Level Miami Center
Tue 05:48:18 PM 24.9586 -73.8583 134° Southeast 474 545 33,000  Level Miami Center
Tue 05:49:18 PM 24.8728 -73.7531 132° Southeast 469 540 33,000  Level Miami Center
Tue 05:50:19 PM 24.7808 -73.6500 134° Southeast 469 540 33,000  Level Miami Center
Tue 05:51:18 PM 24.6950 -73.5469 133° Southeast 470 541 33,000  Level Miami Center
Tue 05:52:18 PM 24.6028 -73.4422 134° Southeast 470 541 33,000  Level Miami Center
Tue 05:53:18 PM 24.5106 -73.3375 134° Southeast 470 541 33,000  Level Miami Center
Tue 05:54:18 PM 24.4225 -73.2372 134° Southeast 470 541 33,000  Level Miami Center
Tue 05:55:18 PM 24.3322 -73.1328 133° Southeast 470 541 33,000  Level Miami Center
Tue 05:56:18 PM 24.2417 -73.0283 134° Southeast 470 541 33,000  Level Miami Center
Tue 05:57:18 PM 24.1533 -72.9264 134° Southeast 470 541 33,000  Level Miami Center
Tue 05:58:18 PM 24.0589 -72.8247 135° Southeast 470 541 33,000  Level Miami Center
Tue 05:59:18 PM 23.9831 -72.7247 130° Southeast 464 534 33,000  Level Miami Center
Tue 06:00:18 PM 23.8817 -72.6192 136° Southeast 468 539 33,000  Level Miami Center
Tue 06:01:19 PM 23.7958 -72.5381 139° Southeast 463 533 33,000  Level Miami Center
Tue 06:02:18 PM 23.6967 -72.4325 136° Southeast 457 526 33,000  Level Miami Center
Tue 06:03:18 PM 23.5961 -72.3500 143° Southeast 452 520 33,000  Level Miami Center
Tue 06:04:18 PM 23.5014 -72.2539 137° Southeast 457 526 33,000  Level Miami Center
Tue 06:05:18 PM 23.4006 -72.1669 142° Southeast 457 526 33,000  Level Miami Center
Tue 06:06:18 PM 23.3036 -72.0778 140° Southeast 462 532 33,000  Level Miami Center
Tue 06:07:18 PM 23.2028 -71.9911 142° Southeast 462 532 33,000  Level Miami Center
Tue 06:08:18 PM 23.1039 -71.9003 140° Southeast 462 532 33,000  Level Miami Center
Tue 06:09:18 PM 23.0069 -71.8136 141° Southeast 462 532 33,000  Level Miami Center
Tue 06:10:18 PM 22.9039 -71.7300 143° Southeast 462 532 33,000  Level Miami Center
Tue 06:11:18 PM 22.8011 -71.6506 145° Southeast 457 526 33,000  Level Miami Center
Tue 06:12:18 PM 22.7000 -71.5647 142° Southeast 457 526 33,000  Level Miami Center
Tue 06:13:18 PM 22.5989 -71.4767 141° Southeast 462 532 33,000  Level Miami Center
Tue 06:14:18 PM 22.4958 -71.3978 145° Southeast 462 532 33,000  Level Miami Center
Tue 06:15:18 PM 22.3967 -71.3122 141° Southeast 462 532 33,000  Level Miami Center
Tue 06:16:18 PM 22.2953 -71.2200 140° Southeast 462 532 33,000  Level Miami Center
Tue 06:17:18 PM 22.2097 -71.1139 131° Southeast 462 532 33,000  Level Miami Center
Tue 06:18:18 PM 22.1267 -71.0103 131° Southeast 462 532 33,000  Level Miami Center
Tue 06:19:19 PM 22.0392 -70.9044 132° Southeast 462 532 33,000  Level Miami Center
Tue 06:20:18 PM 21.9514 -70.7967 131° Southeast 473 544 33,000  Level Miami Center
Tue 06:21:18 PM 21.8658 -70.6931 132° Southeast 473 544 33,000  Level Miami Center
Tue 06:22:18 PM 21.7761 -70.5881 133° Southeast 473 544 33,000  Level Miami Center
Tue 06:23:18 PM 21.7100 -70.5042 130° Southeast 473 544 33,000  Level Miami Center
Tue 06:24:19 PM 21.6114 -70.3906 133° Southeast 473 544 33,000  Level Miami Center
Tue 06:25:18 PM 21.5278 -70.2856 131° Southeast 473 544 33,000  Level Miami Center
Tue 06:26:18 PM 21.4356 -70.1786 133° Southeast 481 554 33,000  Level Miami Center
Tue 06:27:18 PM 21.3475 -70.0739 132° Southeast 481 554 33,000  Level Miami Center
Tue 06:28:18 PM 21.2617 -69.9694 131° Southeast 476 548 33,000  Level Miami Center
Tue 06:29:18 PM 21.1736 -69.8650 132° Southeast 476 548 33,000  Level Miami Center
Tue 06:30:18 PM 21.0856 -69.7608 132° Southeast 476 548 33,000  Level Miami Center
Tue 06:31:18 PM 20.9972 -69.6567 132° Southeast 476 548 33,000  Level Miami Center
Tue 06:32:18 PM 20.9092 -69.5525 132° Southeast 476 548 33,000  Level Miami Center
Tue 06:38:29 PM 20.3440 -68.8890 132° Southeast 482 555 33,000  Level FlightAware ADS-B
Tue 06:39:07 PM 20.2870 -68.8220 132° Southeast 482 555 33,000  Level FlightAware ADS-B
Tue 06:39:44 PM 20.2300 -68.7570 133° Southeast 481 554 33,000  Level FlightAware ADS-B
Tue 06:40:17 PM 20.1820 -68.7000 132° Southeast 482 555 33,000  Level FlightAware ADS-B
Tue 06:40:50 PM 20.1320 -68.6420 133° Southeast 482 555 33,000  Level FlightAware ADS-B
Tue 06:41:29 PM 20.0720 -68.5730 133° Southeast 482 555 33,000  Level FlightAware ADS-B
Tue 06:42:05 PM 20.0180 -68.5100 132° Southeast 483 556 33,000  Level FlightAware ADS-B
Tue 06:42:38 PM 19.9690 -68.4530 132° Southeast 482 555 33,000  Level FlightAware ADS-B
Tue 06:43:15 PM 19.9130 -68.3870 132° Southeast 482 555 33,000  Level FlightAware ADS-B
Tue 06:43:48 PM 19.8640 -68.3310 133° Southeast 482 555 33,000  Level FlightAware ADS-B
Tue 06:44:25 PM 19.8080 -68.2650 132° Southeast 488 562 33,000  Level FlightAware ADS-B
Tue 06:44:57 PM 19.7570 -68.2070 133° Southeast 498 573 33,000  Level FlightAware ADS-B
Tue 06:45:34 PM 19.7020 -68.1430 132° Southeast 503 579 33,000  Level FlightAware ADS-B
Tue 06:46:10 PM 19.6430 -68.0750 133° Southeast 504 580 33,000  Level FlightAware ADS-B
Tue 06:46:45 PM 19.5870 -68.0120 133° Southeast 502 578 33,000  Level FlightAware ADS-B
Tue 06:47:17 PM 19.5360 -67.9530 133° Southeast 496 571 33,000  Level FlightAware ADS-B
Tue 06:47:54 PM 19.4810 -67.8900 133° Southeast 491 565 33,000  Level FlightAware ADS-B
Tue 06:48:27 PM 19.4290 -67.8300 133° Southeast 488 562 33,000  Level FlightAware ADS-B
Tue 06:49:04 PM 19.3730 -67.7660 133° Southeast 487 560 33,000  Level FlightAware ADS-B
Tue 06:49:39 PM 19.3180 -67.7040 133° Southeast 485 558 33,000  Level FlightAware ADS-B
Tue 06:50:14 PM 19.2690 -67.6400 129° Southeast 486 559 33,000  Level FlightAware ADS-B
Tue 06:50:50 PM 19.2270 -67.5680 122° Southeast 485 558 33,000 -423 Level FlightAware ADS-B
Tue 06:51:25 PM 19.1900 -67.4930 118° Southeast 481 554 32,500 -1,970 Descending FlightAware ADS-B
Tue 06:51:57 PM 19.1580 -67.4260 117° Southeast 488 562 30,800 -3,478 Descending FlightAware ADS-B
Tue 06:52:34 PM 19.1190 -67.3480 118° Southeast 495 570 28,500 -3,565 Descending FlightAware ADS-B
Tue 06:53:06 PM 19.0850 -67.2790 118° Southeast 497 572 26,700 -3,134 Descending FlightAware ADS-B
Tue 06:53:41 PM 19.0490 -67.2040 117° Southeast 477 549 25,000 -3,041 Descending FlightAware ADS-B
Tue 06:54:19 PM 19.0110 -67.1270 118° Southeast 461 531 23,000 -3,387 Descending FlightAware ADS-B
Tue 06:54:43 PM 18.9870 -67.0800 118° Southeast 442 509 21,500 -3,484 Descending FlightAware ADS-B
Tue 06:55:21 PM 18.9520 -67.0090 118° Southeast 421 484 19,400 -3,273 Descending FlightAware ADS-B
Tue 06:56:00 PM 18.9180 -66.9390 117° Southeast 415 478 17,300 -3,000 Descending FlightAware ADS-B
Tue 06:56:31 PM 18.8910 -66.8830 117° Southeast 406 467 15,900 -2,559 Descending FlightAware ADS-B
Tue 06:57:08 PM 18.8590 -66.8200 118° Southeast 393 452 14,400 -2,466 Descending FlightAware ADS-B
Tue 06:57:44 PM 18.8290 -66.7590 117° Southeast 382 440 12,900 -2,507 Descending FlightAware ADS-B
Tue 06:58:15 PM 18.8040 -66.7080 117° Southeast 377 434 11,600 -1,881 Descending FlightAware ADS-B
Tue 06:58:51 PM 18.7750 -66.6510 118° Southeast 351 404 10,800 -1,068 Descending FlightAware ADS-B
Tue 06:59:28 PM 18.7480 -66.5990 119° Southeast 321 369 10,300 -750 Descending FlightAware ADS-B
Tue 06:59:55 PM 18.7200 -66.5700 136° Southeast 291 335 10,000 -1,250 Descending FlightAware ADS-B
Tue 07:00:16 PM 18.7000 -66.5500 137° Southeast 286 329 9,300 -1,902 Descending FlightAware ADS-B
Tue 07:00:36 PM 18.6820 -66.5310 135° Southeast 282 325 8,700 -1,067 Descending FlightAware ADS-B
Tue 07:01:01 PM 18.6580 -66.5070 137° Southeast 265 305 8,500 -545 Descending FlightAware ADS-B
Tue 07:01:20 PM 18.6430 -66.4910 135° Southeast 252 290 8,300 -1,021 Descending FlightAware ADS-B
Tue 07:01:48 PM 18.6210 -66.4660 133° Southeast 246 283 7,700 -1,304 Descending FlightAware ADS-B
Tue 07:02:06 PM 18.6070 -66.4520 137° Southeast 244 281 7,300 -778 Descending FlightAware ADS-B
Tue 07:02:42 PM 18.5800 -66.4240 135° Southeast 243 280 7,000 -1,200 Descending FlightAware ADS-B
Tue 07:03:01 PM 18.5620 -66.4050 135° Southeast 234 269 6,200 -1,674 Descending FlightAware ADS-B
Tue 07:03:25 PM 18.5440 -66.3870 137° Southeast 233 268 5,800 -1,000 Descending FlightAware ADS-B
Tue 07:03:49 PM 18.5250 -66.3670 135° Southeast 230 265 5,400 -955 Descending FlightAware ADS-B
Tue 07:04:09 PM 18.5100 -66.3520 137° Southeast 224 258 5,100 -900 Descending FlightAware ADS-B
Tue 07:04:29 PM 18.4950 -66.3360 135° Southeast 213 245 4,800 -774 Descending FlightAware ADS-B
Tue 07:04:40 PM 18.4890 -66.3300 137° Southeast 211 243 4,700 -162 Descending FlightAware ADS-B
Tue 07:05:06 PM 18.4740 -66.3140 135° Southeast 211 243 4,700 -667 Level FlightAware ADS-B
Tue 07:05:25 PM 18.4590 -66.2990 137° Southeast 185 213 4,200 -1,077 Descending FlightAware ADS-B
Tue 07:05:45 PM 18.4470 -66.2870 137° Southeast 181 208 4,000 -682 Descending FlightAware ADS-B
Tue 07:06:09 PM 18.4320 -66.2710 135° Southeast 181 208 3,700 -682 Descending FlightAware ADS-B
Tue 07:06:29 PM 18.4200 -66.2590 137° Southeast 182 209 3,500 -643 Descending FlightAware ADS-B
Tue 07:06:37 PM 18.4160 -66.2540 130° Southeast 182 209 3,400 -500 Descending FlightAware ADS-B
Tue 07:06:41 PM 18.4140 -66.2510 125° Southeast 181 208 3,400 -500 Level FlightAware ADS-B
Tue 07:06:49 PM 18.4120 -66.2440 107° East 181 208 3,300 -643 Descending FlightAware ADS-B
Tue 07:07:09 PM 18.4120 -66.2260 90° East 181 208 3,100 -714 Descending FlightAware ADS-B
Tue 07:07:31 PM 18.4110 -66.2070 93° East 181 208 2,800 -955 Descending FlightAware ADS-B
Tue 07:07:53 PM 18.4110 -66.1880 90° East 182 209 2,400 -1,059 Descending FlightAware ADS-B
Tue 07:08:05 PM 18.4100 -66.1770 95° East 175 201 2,200 -750 Descending FlightAware ADS-B
Tue 07:08:25 PM 18.4100 -66.1610 90° East 164 189 2,000 -682 Descending FlightAware ADS-B
Tue 07:08:49 PM 18.4090 -66.1430 93° East 150 173 1,700 -522 Descending FlightAware ADS-B
Tue 07:09:11 PM 18.4090 -66.1280 90° East 127 146 1,600 -143 Descending FlightAware ADS-B
Tue 07:09:31 PM 18.4080 -66.1160 95° East 126 145 1,600  Level FlightAware ADS-B
Tue 07:09:51 PM 18.4080 -66.1040 90° East 125 144 1,600 -150 Level FlightAware ADS-B
Tue 07:10:11 PM 18.4080 -66.0910 90° East 127 146 1,500 -214 Descending FlightAware ADS-B
Tue 07:10:19 PM 18.4090 -66.0870 75° East 127 146 1,500 -300 Level FlightAware ADS-B
Tue 07:10:31 PM 18.4120 -66.0810 62° Northeast 127 146 1,400 -750 Descending FlightAware ADS-B
Tue 07:10:51 PM 18.4170 -66.0690 66° East 125 144 1,100 -800 Descending FlightAware ADS-B
Tue 07:11:01 PM 18.4190 -66.0630 71° East 124 143 1,000 -667 Descending FlightAware ADS-B
Tue 07:11:27 PM 18.4250 -66.0490 66° East 124 143 700 -682 Descending FlightAware ADS-B
Tue 07:11:45 PM 18.4290 -66.0390 67° East 122 140 500 -571 Descending FlightAware ADS-B
Tue 07:12:09 PM 18.4340 -66.0250 69° East 125 144 300 -600 Descending FlightAware ADS-B
Tue 07:12:25 PM 18.4380 -66.0170 62° Northeast 130 150 100 -273 Descending FlightAware ADS-B
Tue 07:12:53 PM 18.4440 -66.0030 66° East 130 150 100  Level FlightAware ADS-B

Login

Don't have an account? Register now (free) for customized features, flight alerts, and more!